Weather at RAAF Base Pearce

Public forecast

Using degrees Celsius for public forecast. Weather courtesy of forecast.io.

Current aviation weather report (METAR) for RAAF Base Pearce

Retrieved 2020/11/28 07:30 UTC (0 seconds ago):

YPEA 280730Z AUTO 19016KT 9999 // NCD 23/08 Q1015

Aviation forecast (TAF) for RAAF Base Pearce

Retrieved 2020/11/28 06:31 UTC (35 minutes ago):

TAF YPEA 280525Z 2806/2900 18010KT CAVOK FM280700 23016KT CAVOK FM281100 19010KT CAVOK